Terminal Aerodrome Forecast
Issued by NWS

Home | Current Version | Previous Version | Text Only | Print | Product List | Glossary On
Versions: 1 2 3 4 5 6 7 8 9 10 11
129
FTUS42 TJSJ 132320
TAFNCM
TAF
TNCM 132320Z 1400/1424 09006KT P6SM SCT022
     FM141200 13012KT P6SM FEW022
     FM141400 10009KT P6SM SCT020 SCT040
     FM141800 08012KT P6SM SCT030=

USA.gov is the U.S. government's official web portal to all federal, state and local government web resources and services.